• Join FlightAware (Why Join?)
  • Login
  • US Flag 
11:12PM EDT


 

Airport Tracker/Info


-or-


 

Live Flight TrackerFlight Track Log ✈ NRL919 ✈ 14-May-2012 ✈ CYYC - KBFI

Flight Track Log - Related Links

Times and Time Zones

All times are in EDT time to prevent confusion due to time zone crossing. See the NRL919 flight status page for this flight to view local times or setup timezone preferences in your user account.

Time Position Orientation Groundspeed Altitude Reporting Facility
EDT Latitude Longitude Course Direction KTS MPH feet Rate Location/Type
08:36PM 51.0667 -114.0500 180° South 150 173 4,800  Level Edmonton Center
08:37PM 51.0000 -114.0500 220° Southwest 230 265 6,500 2,460 Climbing Edmonton Center
08:38PM 50.9500 -114.1167 218° Southwest 270 311 9,800 2,700 Climbing Edmonton Center
08:39PM 50.8833 -114.2000 225° Southwest 310 357 12,000 2,220 Climbing Edmonton Center
08:40PM 50.8000 -114.3333 218° Southwest 370 426 14,300 2,520 Climbing Edmonton Center
08:41PM 50.7333 -114.4167 229° Southwest 370 426 17,100 2,700 Climbing Edmonton Center
08:42PM 50.6500 -114.5667 212° Southwest 390 449 19,700 2,040 Climbing Edmonton Center
08:43PM 50.5667 -114.6500 226° Southwest 390 449 21,200 2,100 Climbing Edmonton Center
08:44PM 50.4833 -114.7833 217° Southwest 400 460 24,000 2,580 Climbing Edmonton Center
08:45PM 50.4000 -114.8833 226° Southwest 390 449 26,400 2,160 Climbing Edmonton Center
08:46PM 50.3167 -115.0167 147° Southeast 390 449 28,400 2,100 Climbing Edmonton Center
08:47PM 50.3000 -115.0000 222° Southwest 390 449 29,600 2,100 Climbing Vancouver Center
08:48PM 50.2167 -115.1167 228° Southwest 380 437 31,600 1,440 Climbing Vancouver Center
08:49PM 50.1500 -115.2333 251° West 380 437 32,500 1,200 Climbing Vancouver Center
08:50PM 50.1167 -115.3833 245° Southwest 380 437 34,000 720 Climbing Vancouver Center
08:51PM 50.0667 -115.5500 238° Southwest 390 449 34,000  Level Vancouver Center
08:52PM 50.0000 -115.7167 240° Southwest 410 472 34,000  Level Vancouver Center
08:53PM 49.9500 -115.8500 245° Southwest 410 472 34,000  Level Vancouver Center
08:54PM 49.9000 -116.0167 240° Southwest 400 460 34,000  Level Vancouver Center
08:55PM 49.8500 -116.1500 235° Southwest 390 449 34,000  Level Vancouver Center
08:56PM 49.7833 -116.3000 243° Southwest 390 449 34,000  Level Vancouver Center
08:57PM 49.7333 -116.4500 243° Southwest 390 449 34,000  Level Vancouver Center
08:58PM 49.6833 -116.6000 236° Southwest 400 460 34,000  Level Vancouver Center
08:59PM 49.6167 -116.7500 243° Southwest 400 460 34,000  Level Vancouver Center
09:00PM 49.5667 -116.9000 236° Southwest 400 460 34,000  Level Vancouver Center
09:01PM 49.5000 -117.0500 251° West 400 460 34,000  Level Vancouver Center
09:02PM 49.4667 -117.2000 232° Southwest 400 460 34,000  Level Vancouver Center
09:03PM 49.4000 -117.3333 243° Southwest 400 460 34,000  Level Vancouver Center
09:04PM 49.3500 -117.4833 236° Southwest 400 460 34,000  Level Vancouver Center
09:05PM 49.2833 -117.6333 243° Southwest 400 460 34,000  Level Vancouver Center
09:06PM 49.2333 -117.7833 239° Southwest 400 460 34,000  Level Vancouver Center
09:07PM 49.1667 -117.9500 240° Southwest 410 472 34,000  Level Vancouver Center
09:08PM 49.1167 -118.0833 239° Southwest 410 472 34,000  Level Vancouver Center
09:09PM 49.0500 -118.2500 233° Southwest 410 472 34,000  Level Vancouver Center
09:10PM 48.9833 -118.3833 251° West 410 472 34,000  Level Vancouver Center
09:11PM 48.9500 -118.5333 233° Southwest 410 472 34,000  Level Vancouver Center
09:12PM 48.8833 -118.6667 246° West 410 472 34,000  Level Vancouver Center
09:13PM 48.8333 -118.8333 236° Southwest 410 472 34,000  Level Vancouver Center
09:14PM 48.7667 -118.9833 233° Southwest 410 472 34,000  Level Vancouver Center
09:15PM 48.7000 -119.1167 246° West 410 472 34,000  Level Vancouver Center
09:16PM 48.6500 -119.2833 233° Southwest 410 472 34,000  Level Vancouver Center
09:17PM 48.5833 -119.4167 236° Southwest 420 483 34,000  Level Vancouver Center
09:18PM 48.5167 -119.5667 241° Southwest 410 472 34,000  Level Vancouver Center
09:19PM 48.4667 -119.7000 236° Southwest 410 472 34,000  Level Vancouver Center
09:20PM 48.4000 -119.8500 251° West 410 472 34,000  Level Vancouver Center
09:21PM 48.3639 -120.0064 226° Southwest 414 476 34,000 -600 Level Seattle Center
09:22PM 48.2833 -120.1333 239° Southwest 420 483 32,800 -1,980 Descending Vancouver Center
09:23PM 48.2167 -120.3000 236° Southwest 410 472 30,100 -2,640 Descending Vancouver Center
09:24PM 48.1500 -120.4500 236° Southwest 410 472 27,600 -2,580 Descending Vancouver Center
09:25PM 48.0833 -120.6000 241° Southwest 420 483 25,000 -2,220 Descending Vancouver Center
09:26PM 48.0333 -120.7333 236° Southwest 430 495 23,200 -2,100 Descending Vancouver Center
09:27PM 47.9667 -120.8833 248° West 420 483 20,900 -2,400 Descending Vancouver Center
09:28PM 47.9225 -121.0436 238° Southwest 414 476 18,200 -2,280 Descending Seattle Center
09:29PM 47.8628 -121.1858 272° West 408 470 16,100 -2,580 Descending Seattle Center
09:30PM 47.8658 -121.3089 275° West 393 452 14,000 -2,280 Descending Seattle Center
09:31PM 47.8758 -121.4986 275° West 380 437 11,500 -1,260 Descending Seattle Center
09:32PM 47.8850 -121.6547 231° Southwest 312 359 11,000 -780 Descending Seattle Center
09:33PM 47.8400 -121.7367 201° Southwest 286 329 10,000 -1,500 Descending Seattle Center
09:34PM 47.7553 -121.7861 199° South 284 327 7,900 -1,500 Descending Seattle Center
09:35PM 47.6936 -121.8178 199° South 280 322 7,000 -1,320 Descending Seattle Center
09:36PM 47.6228 -121.8547 209° Southwest 274 315 5,400 -1,020 Descending Seattle Center
09:37PM 47.5561 -121.9092 209° Southwest 276 318 5,000 -240 Descending Seattle Center
09:38PM 47.4894 -121.9639 216° Southwest 274 315 5,000 -420 Level Seattle Center
09:39PM 47.4178 -122.0414 248° West 271 312 4,200 -720 Descending Seattle Center
09:40PM 47.3936 -122.1303 298° West 232 267 3,600 -780 Descending Seattle Center
09:41PM 47.4172 -122.1958 320° Northwest 203 234 2,800 -1,140 Descending Seattle Center
09:42PM 47.4533 -122.2414 333° Northwest 168 193 1,500 -960 Descending Seattle Center
09:43PM 47.4892 -122.2686 330° Northwest 124 143 800 -660 Descending Seattle Center
09:44PM 47.5164 -122.2922 330° Northwest 116 133 100 -720 Descending Seattle Center